LNG Dream — C6VO5 — position and weather

sailwx.info

Track history (hours):
 
Tides and Currents Weather Stations Pressure Air Temp Water Temp Dewpoint Dewpoint Depression Visibility Wind Speed Wind Dir Waves Ship Positions

LNG Dream

Last reported at 2014-Oct-19 05:21 UTC. Time now 2014-Nov-23 03:27 UTC.
Position N 01°15' E 104°06'.
Warning: this ship's position is 34 days out of date.

Length 289.6 m; beam 49 m.

Type: Ship (hazmat cat A). MMSI: 309065000.

Date/timePositionNaut miles runAvg speedWind from/ knotsBaromVisibWave heightAir tempDewpointWater temp
2014-Oct-19 05:21N 01°15' E 104°06'911.5
2014-Oct-19 04:33N 01°13' E 103°57'9 9.5
2014-Oct-19 03:33N 01°10' E 103°48'9 3.0
2014-Oct-19 00:25N 01°11' E 103°39'3 3.0
2014-Oct-18 23:33N 01°12' E 103°42'0 0.1
2014-Oct-18 21:22N 01°12' E 103°42'0 0.1
2014-Oct-18 20:28N 01°12' E 103°42'0 0.1
2014-Oct-18 19:31N 01°12' E 103°42'0 0.0
2014-Oct-18 18:25N 01°12' E 103°42'0 0.1
2014-Oct-18 17:28N 01°12' E 103°42'0 0.3
2014-Oct-18 16:25N 01°11' E 103°42'0 0.2
2014-Oct-18 15:04N 01°12' E 103°42'0 0.1
2014-Oct-18 14:28N 01°12' E 103°42'0 0.2
2014-Oct-18 13:16N 01°11' E 103°42'0 0.3
2014-Oct-18 12:13N 01°12' E 103°41'0 0.1
2014-Oct-18 11:28N 01°12' E 103°42'0 0.0
2014-Oct-18 09:22N 01°12' E 103°42'0 0.0
2014-Oct-18 07:28N 01°12' E 103°42'0 0.1
2014-Oct-18 06:28N 01°12' E 103°42'0 0.1
2014-Oct-18 03:25N 01°12' E 103°42'0 0.1
2014-Oct-18 02:31N 01°11' E 103°42'0 0.1
2014-Oct-18 01:31N 01°12' E 103°42'0 0.1
2014-Oct-18 00:30N 01°11' E 103°42'0 0.1
2014-Oct-17 23:24N 01°11' E 103°42'0 0.0
2014-Oct-17 22:24N 01°12' E 103°42'0 0.0
2014-Oct-17 15:15N 01°12' E 103°42'0 0.3
2014-Oct-17 14:27N 01°12' E 103°41'0 0.0
2014-Oct-17 12:21N 01°12' E 103°41'2 2.2
2014-Oct-17 11:33N 01°12' E 103°40'8 1.0
2014-Oct-17 03:26N 01°13' E 103°32'8 7.9
2014-Oct-17 02:28N 01°14' E 103°40'3 2.9
2014-Oct-17 01:16N 01°17' E 103°40'1 1.3
2014-Oct-17 00:33N 01°18' E 103°41'0 0.0
2014-Oct-16 07:33N 01°18' E 103°41'0 0.0
2014-Oct-16 06:32N 01°18' E 103°41'0 0.0
2014-Oct-16 04:29N 01°18' E 103°41'0 0.0
2014-Oct-16 03:17N 01°18' E 103°41'0 0.0
2014-Oct-16 02:32N 01°18' E 103°41'0 0.0
2014-Oct-16 00:25N 01°18' E 103°41'0 0.0
2014-Oct-15 23:31N 01°18' E 103°41'0 0.0
2014-Oct-15 22:31N 01°18' E 103°41'0 0.0
2014-Oct-15 21:25N 01°18' E 103°41'0 0.0
2014-Oct-15 20:31N 01°18' E 103°41'0 0.0
2014-Oct-15 19:31N 01°18' E 103°41'0 0.0
2014-Oct-15 18:28N 01°18' E 103°41'0 0.0
2014-Oct-15 17:31N 01°18' E 103°41'0 0.0
2014-Oct-15 16:31N 01°18' E 103°41'0 0.0
2014-Oct-15 15:25N 01°18' E 103°41'0 0.0
2014-Oct-15 14:34N 01°18' E 103°41'0 0.0
2014-Oct-15 13:34N 01°18' E 103°41'0 0.0
2014-Oct-15 12:33N 01°18' E 103°41'0 0.0
2014-Oct-15 11:30N 01°18' E 103°41'0 0.0
2014-Oct-15 10:33N 01°18' E 103°41'0 0.0
2014-Oct-15 09:33N 01°18' E 103°41'0 0.0
2014-Oct-15 08:33N 01°18' E 103°41'0 0.0
2014-Oct-15 07:33N 01°18' E 103°41'0 0.0
2014-Oct-15 06:27N 01°18' E 103°41'0 0.0
2014-Oct-15 05:33N 01°18' E 103°41'0 0.0
2014-Oct-15 04:18N 01°18' E 103°41'0 0.0
2014-Oct-15 03:30N 01°18' E 103°41'0 0.0
2014-Oct-15 02:22N 01°18' E 103°41'0 0.0
2014-Oct-15 01:31N 01°18' E 103°41'0 0.0
2014-Oct-15 00:28N 01°18' E 103°41'0 0.0
2014-Oct-14 23:31N 01°18' E 103°41'0 0.1
2014-Oct-14 22:31N 01°18' E 103°41'0 0.1
2014-Oct-14 21:28N 01°18' E 103°41'0 0.0
2014-Oct-14 20:31N 01°18' E 103°41'0 0.0
2014-Oct-14 19:31N 01°18' E 103°41'0 0.0
2014-Oct-14 18:31N 01°18' E 103°41'0 0.0
2014-Oct-14 17:31N 01°18' E 103°41'0 0.0
2014-Oct-14 16:28N 01°18' E 103°41'0 0.0
2014-Oct-14 15:28N 01°18' E 103°41'0 0.0
2014-Oct-14 14:31N 01°18' E 103°41'0 0.0
2014-Oct-14 13:31N 01°18' E 103°41'0 0.0
2014-Oct-14 12:31N 01°18' E 103°41'0 0.0
2014-Oct-14 11:31N 01°18' E 103°41'0 0.0
2014-Oct-14 10:34N 01°18' E 103°41'0 0.0
2014-Oct-14 09:27N 01°18' E 103°41'0 0.0
2014-Oct-14 08:33N 01°18' E 103°41'0 0.0
2014-Oct-14 07:33N 01°18' E 103°41'0 0.0
2014-Oct-14 06:30N 01°18' E 103°41'0 0.0
2014-Oct-14 05:33N 01°18' E 103°41'0 0.0
2014-Oct-14 04:33N 01°18' E 103°41'0 0.0
2014-Oct-14 03:33N 01°18' E 103°41'0 0.0
2014-Oct-14 02:33N 01°18' E 103°41'0 0.0
2014-Oct-14 01:33N 01°18' E 103°41'0 0.0
2014-Oct-14 00:33N 01°18' E 103°41'0 0.0
2014-Oct-13 23:33N 01°18' E 103°41'0 0.0
2014-Oct-13 22:33N 01°18' E 103°41'0 0.0
2014-Oct-13 21:33N 01°18' E 103°41'0 0.0
2014-Oct-13 20:33N 01°18' E 103°41'0 0.0
2014-Oct-13 19:33N 01°18' E 103°41'0 0.0
2014-Oct-13 18:33N 01°18' E 103°41'0 0.0
2014-Oct-13 17:33N 01°18' E 103°41'0 0.0
2014-Oct-13 16:33N 01°18' E 103°41'0 0.0
2014-Oct-13 15:33N 01°18' E 103°41'0 0.0
2014-Oct-13 14:33N 01°18' E 103°41'0 0.0
2014-Oct-13 13:33N 01°18' E 103°41'0 0.0
2014-Oct-13 12:33N 01°18' E 103°41'0 0.0
2014-Oct-13 11:33N 01°18' E 103°41'0 0.0
2014-Oct-13 10:33N 01°18' E 103°41'0 0.0
2014-Oct-13 09:33N 01°18' E 103°41'0 0.0
2014-Oct-13 08:33N 01°18' E 103°41'0 0.0
2014-Oct-13 07:33N 01°18' E 103°41'0 0.0
2014-Oct-13 06:33N 01°18' E 103°41'0 0.0
2014-Oct-13 05:33N 01°18' E 103°41'0 0.0
2014-Oct-13 04:27N 01°18' E 103°41'0 0.1
2014-Oct-13 03:33N 01°18' E 103°41'0 0.0
2014-Oct-13 02:28N 01°18' E 103°41'0 0.1
2014-Oct-13 01:31N 01°18' E 103°41'0 0.0
2014-Oct-12 03:31N 01°18' E 103°41'0 0.0
2014-Oct-12 02:31N 01°18' E 103°41'0 0.0
2014-Oct-12 01:29N 01°18' E 103°41'0 0.0
2014-Oct-12 00:31N 01°18' E 103°41'0 0.0
2014-Oct-11 23:31N 01°18' E 103°41'0 0.1
2014-Oct-11 22:31N 01°18' E 103°41'0 0.1
2014-Oct-11 21:31N 01°18' E 103°41'0 0.0
2014-Oct-11 20:31N 01°18' E 103°41'0 0.0
2014-Oct-11 19:31N 01°18' E 103°41'0 0.0
2014-Oct-11 18:31N 01°18' E 103°41'0 0.0
2014-Oct-11 17:31N 01°18' E 103°41'0 0.0
2014-Oct-11 16:34N 01°18' E 103°41'0 0.0
2014-Oct-11 15:30N 01°18' E 103°41'0 0.0
2014-Oct-11 14:33N 01°18' E 103°41'0 0.0
2014-Oct-11 13:33N 01°18' E 103°41'0 0.0
2014-Oct-11 12:33N 01°18' E 103°41'0 0.0
2014-Oct-11 11:33N 01°18' E 103°41'0 0.0
2014-Oct-11 10:31N 01°18' E 103°41'0 0.0
2014-Oct-11 09:19N 01°18' E 103°41'0 0.0
2014-Oct-11 08:27N 01°18' E 103°41'0 0.0
2014-Oct-11 07:30N 01°18' E 103°41'0 0.1
2014-Oct-11 06:30N 01°18' E 103°41'0 0.1
2014-Oct-11 05:33N 01°18' E 103°41'0 0.0
2014-Oct-11 04:33N 01°18' E 103°41'0 0.0
2014-Oct-11 03:33N 01°18' E 103°41'0 0.0
2014-Oct-11 02:31N 01°18' E 103°41'0 0.0
2014-Oct-11 01:31N 01°18' E 103°41'0 0.0
2014-Oct-11 00:28N 01°18' E 103°41'0 0.0
2014-Oct-10 23:31N 01°18' E 103°41'0 0.0
2014-Oct-10 22:31N 01°18' E 103°41'0 0.0
2014-Oct-10 21:31N 01°18' E 103°41'0 0.0
2014-Oct-10 20:31N 01°18' E 103°41'0 0.0
2014-Oct-10 19:31N 01°18' E 103°41'0 0.0
2014-Oct-10 18:28N 01°18' E 103°41'0 0.0
2014-Oct-10 17:31N 01°18' E 103°41'0 0.0
2014-Oct-10 16:34N 01°18' E 103°41'0 0.0
2014-Oct-10 15:33N 01°18' E 103°41'0 0.0
2014-Oct-10 14:33N 01°18' E 103°41'0 0.0
2014-Oct-10 13:33N 01°18' E 103°41'0 0.0
2014-Oct-10 12:33N 01°18' E 103°41'0 0.0
2014-Oct-10 11:33N 01°18' E 103°41'0 0.0
2014-Oct-10 10:33N 01°18' E 103°41'0 0.0
2014-Oct-10 09:33N 01°18' E 103°41'0 0.0
2014-Oct-10 08:33N 01°18' E 103°41'0 0.0
2014-Oct-10 07:30N 01°18' E 103°41'0 0.0
2014-Oct-10 06:33N 01°18' E 103°41'0 0.0
2014-Oct-10 05:33N 01°18' E 103°41'0 0.0
2014-Oct-10 04:33N 01°18' E 103°41'0 0.2
2014-Oct-10 03:33N 01°18' E 103°41'  
Track history (hours):
 
Tides and Currents Weather Stations Pressure Air Temp Water Temp Dewpoint Dewpoint Depression Visibility Wind Speed Wind Dir Waves Ship Positions

LNG Dream

Last reported at 2014-Oct-19 05:21 UTC. Time now 2014-Nov-23 03:27 UTC.
Position N 01°15' E 104°06'.
Warning: this ship's position is 34 days out of date.

Length 289.6 m; beam 49 m.

Type: Ship (hazmat cat A). MMSI: 309065000.

Date/timePositionNaut miles runAvg speedWind from/ knotsBaromVisibWave heightAir tempDewpointWater temp
2014-Oct-19 05:21N 01°15' E 104°06'911.5
2014-Oct-19 04:33N 01°13' E 103°57'9 9.5
2014-Oct-19 03:33N 01°10' E 103°48'9 3.0
2014-Oct-19 00:25N 01°11' E 103°39'3 3.0
2014-Oct-18 23:33N 01°12' E 103°42'0 0.1
2014-Oct-18 21:22N 01°12' E 103°42'0 0.1
2014-Oct-18 20:28N 01°12' E 103°42'0 0.1
2014-Oct-18 19:31N 01°12' E 103°42'0 0.0
2014-Oct-18 18:25N 01°12' E 103°42'0 0.1
2014-Oct-18 17:28N 01°12' E 103°42'0 0.3
2014-Oct-18 16:25N 01°11' E 103°42'0 0.2
2014-Oct-18 15:04N 01°12' E 103°42'0 0.1
2014-Oct-18 14:28N 01°12' E 103°42'0 0.2
2014-Oct-18 13:16N 01°11' E 103°42'0 0.3
2014-Oct-18 12:13N 01°12' E 103°41'0 0.1
2014-Oct-18 11:28N 01°12' E 103°42'0 0.0
2014-Oct-18 09:22N 01°12' E 103°42'0 0.0
2014-Oct-18 07:28N 01°12' E 103°42'0 0.1
2014-Oct-18 06:28N 01°12' E 103°42'0 0.1
2014-Oct-18 03:25N 01°12' E 103°42'0 0.1
2014-Oct-18 02:31N 01°11' E 103°42'0 0.1
2014-Oct-18 01:31N 01°12' E 103°42'0 0.1
2014-Oct-18 00:30N 01°11' E 103°42'0 0.1
2014-Oct-17 23:24N 01°11' E 103°42'0 0.0
2014-Oct-17 22:24N 01°12' E 103°42'0 0.0
2014-Oct-17 15:15N 01°12' E 103°42'0 0.3
2014-Oct-17 14:27N 01°12' E 103°41'0 0.0
2014-Oct-17 12:21N 01°12' E 103°41'2 2.2
2014-Oct-17 11:33N 01°12' E 103°40'8 1.0
2014-Oct-17 03:26N 01°13' E 103°32'8 7.9
2014-Oct-17 02:28N 01°14' E 103°40'3 2.9
2014-Oct-17 01:16N 01°17' E 103°40'1 1.3
2014-Oct-17 00:33N 01°18' E 103°41'0 0.0
2014-Oct-16 07:33N 01°18' E 103°41'0 0.0
2014-Oct-16 06:32N 01°18' E 103°41'0 0.0
2014-Oct-16 04:29N 01°18' E 103°41'0 0.0
2014-Oct-16 03:17N 01°18' E 103°41'0 0.0
2014-Oct-16 02:32N 01°18' E 103°41'0 0.0
2014-Oct-16 00:25N 01°18' E 103°41'0 0.0
2014-Oct-15 23:31N 01°18' E 103°41'0 0.0
2014-Oct-15 22:31N 01°18' E 103°41'0 0.0
2014-Oct-15 21:25N 01°18' E 103°41'0 0.0
2014-Oct-15 20:31N 01°18' E 103°41'0 0.0
2014-Oct-15 19:31N 01°18' E 103°41'0 0.0
2014-Oct-15 18:28N 01°18' E 103°41'0 0.0
2014-Oct-15 17:31N 01°18' E 103°41'0 0.0
2014-Oct-15 16:31N 01°18' E 103°41'0 0.0
2014-Oct-15 15:25N 01°18' E 103°41'0 0.0
2014-Oct-15 14:34N 01°18' E 103°41'0 0.0
2014-Oct-15 13:34N 01°18' E 103°41'0 0.0
2014-Oct-15 12:33N 01°18' E 103°41'0 0.0
2014-Oct-15 11:30N 01°18' E 103°41'0 0.0
2014-Oct-15 10:33N 01°18' E 103°41'0 0.0
2014-Oct-15 09:33N 01°18' E 103°41'0 0.0
2014-Oct-15 08:33N 01°18' E 103°41'0 0.0
2014-Oct-15 07:33N 01°18' E 103°41'0 0.0
2014-Oct-15 06:27N 01°18' E 103°41'0 0.0
2014-Oct-15 05:33N 01°18' E 103°41'0 0.0
2014-Oct-15 04:18N 01°18' E 103°41'0 0.0
2014-Oct-15 03:30N 01°18' E 103°41'0 0.0
2014-Oct-15 02:22N 01°18' E 103°41'0 0.0
2014-Oct-15 01:31N 01°18' E 103°41'0 0.0
2014-Oct-15 00:28N 01°18' E 103°41'0 0.0
2014-Oct-14 23:31N 01°18' E 103°41'0 0.1
2014-Oct-14 22:31N 01°18' E 103°41'0 0.1
2014-Oct-14 21:28N 01°18' E 103°41'0 0.0
2014-Oct-14 20:31N 01°18' E 103°41'0 0.0
2014-Oct-14 19:31N 01°18' E 103°41'0 0.0
2014-Oct-14 18:31N 01°18' E 103°41'0 0.0
2014-Oct-14 17:31N 01°18' E 103°41'0 0.0
2014-Oct-14 16:28N 01°18' E 103°41'0 0.0
2014-Oct-14 15:28N 01°18' E 103°41'0 0.0
2014-Oct-14 14:31N 01°18' E 103°41'0 0.0
2014-Oct-14 13:31N 01°18' E 103°41'0 0.0
2014-Oct-14 12:31N 01°18' E 103°41'0 0.0
2014-Oct-14 11:31N 01°18' E 103°41'0 0.0
2014-Oct-14 10:34N 01°18' E 103°41'0 0.0
2014-Oct-14 09:27N 01°18' E 103°41'0 0.0
2014-Oct-14 08:33N 01°18' E 103°41'0 0.0
2014-Oct-14 07:33N 01°18' E 103°41'0 0.0
2014-Oct-14 06:30N 01°18' E 103°41'0 0.0
2014-Oct-14 05:33N 01°18' E 103°41'0 0.0
2014-Oct-14 04:33N 01°18' E 103°41'0 0.0
2014-Oct-14 03:33N 01°18' E 103°41'0 0.0
2014-Oct-14 02:33N 01°18' E 103°41'0 0.0
2014-Oct-14 01:33N 01°18' E 103°41'0 0.0
2014-Oct-14 00:33N 01°18' E 103°41'0 0.0
2014-Oct-13 23:33N 01°18' E 103°41'0 0.0
2014-Oct-13 22:33N 01°18' E 103°41'0 0.0
2014-Oct-13 21:33N 01°18' E 103°41'0 0.0
2014-Oct-13 20:33N 01°18' E 103°41'0 0.0
2014-Oct-13 19:33N 01°18' E 103°41'0 0.0
2014-Oct-13 18:33N 01°18' E 103°41'0 0.0
2014-Oct-13 17:33N 01°18' E 103°41'0 0.0
2014-Oct-13 16:33N 01°18' E 103°41'0 0.0
2014-Oct-13 15:33N 01°18' E 103°41'0 0.0
2014-Oct-13 14:33N 01°18' E 103°41'0 0.0
2014-Oct-13 13:33N 01°18' E 103°41'0 0.0
2014-Oct-13 12:33N 01°18' E 103°41'0 0.0
2014-Oct-13 11:33N 01°18' E 103°41'0 0.0
2014-Oct-13 10:33N 01°18' E 103°41'0 0.0
2014-Oct-13 09:33N 01°18' E 103°41'0 0.0
2014-Oct-13 08:33N 01°18' E 103°41'0 0.0
2014-Oct-13 07:33N 01°18' E 103°41'0 0.0
2014-Oct-13 06:33N 01°18' E 103°41'0 0.0
2014-Oct-13 05:33N 01°18' E 103°41'0 0.0
2014-Oct-13 04:27N 01°18' E 103°41'0 0.1
2014-Oct-13 03:33N 01°18' E 103°41'0 0.0
2014-Oct-13 02:28N 01°18' E 103°41'0 0.1
2014-Oct-13 01:31N 01°18' E 103°41'0 0.0
2014-Oct-12 03:31N 01°18' E 103°41'0 0.0
2014-Oct-12 02:31N 01°18' E 103°41'0 0.0
2014-Oct-12 01:29N 01°18' E 103°41'0 0.0
2014-Oct-12 00:31N 01°18' E 103°41'0 0.0
2014-Oct-11 23:31N 01°18' E 103°41'0 0.1
2014-Oct-11 22:31N 01°18' E 103°41'0 0.1
2014-Oct-11 21:31N 01°18' E 103°41'0 0.0
2014-Oct-11 20:31N 01°18' E 103°41'0 0.0
2014-Oct-11 19:31N 01°18' E 103°41'0 0.0
2014-Oct-11 18:31N 01°18' E 103°41'0 0.0
2014-Oct-11 17:31N 01°18' E 103°41'0 0.0
2014-Oct-11 16:34N 01°18' E 103°41'0 0.0
2014-Oct-11 15:30N 01°18' E 103°41'0 0.0
2014-Oct-11 14:33N 01°18' E 103°41'0 0.0
2014-Oct-11 13:33N 01°18' E 103°41'0 0.0
2014-Oct-11 12:33N 01°18' E 103°41'0 0.0
2014-Oct-11 11:33N 01°18' E 103°41'0 0.0
2014-Oct-11 10:31N 01°18' E 103°41'0 0.0
2014-Oct-11 09:19N 01°18' E 103°41'0 0.0
2014-Oct-11 08:27N 01°18' E 103°41'0 0.0
2014-Oct-11 07:30N 01°18' E 103°41'0 0.1
2014-Oct-11 06:30N 01°18' E 103°41'0 0.1
2014-Oct-11 05:33N 01°18' E 103°41'0 0.0
2014-Oct-11 04:33N 01°18' E 103°41'0 0.0
2014-Oct-11 03:33N 01°18' E 103°41'0 0.0
2014-Oct-11 02:31N 01°18' E 103°41'0 0.0
2014-Oct-11 01:31N 01°18' E 103°41'0 0.0
2014-Oct-11 00:28N 01°18' E 103°41'0 0.0
2014-Oct-10 23:31N 01°18' E 103°41'0 0.0
2014-Oct-10 22:31N 01°18' E 103°41'0 0.0
2014-Oct-10 21:31N 01°18' E 103°41'0 0.0
2014-Oct-10 20:31N 01°18' E 103°41'0 0.0
2014-Oct-10 19:31N 01°18' E 103°41'0 0.0
2014-Oct-10 18:28N 01°18' E 103°41'0 0.0
2014-Oct-10 17:31N 01°18' E 103°41'0 0.0
2014-Oct-10 16:34N 01°18' E 103°41'0 0.0
2014-Oct-10 15:33N 01°18' E 103°41'0 0.0
2014-Oct-10 14:33N 01°18' E 103°41'0 0.0
2014-Oct-10 13:33N 01°18' E 103°41'0 0.0
2014-Oct-10 12:33N 01°18' E 103°41'0 0.0
2014-Oct-10 11:33N 01°18' E 103°41'0 0.0
2014-Oct-10 10:33N 01°18' E 103°41'0 0.0
2014-Oct-10 09:33N 01°18' E 103°41'0 0.0
2014-Oct-10 08:33N 01°18' E 103°41'0 0.0
2014-Oct-10 07:30N 01°18' E 103°41'0 0.0
2014-Oct-10 06:33N 01°18' E 103°41'0 0.0
2014-Oct-10 05:33N 01°18' E 103°41'0 0.0
2014-Oct-10 04:33N 01°18' E 103°41'0 0.2
2014-Oct-10 03:33N 01°18' E 103°41'  

Dump ship's entire track history